sensor_id;sensor_type;location;lat;lon;timestamp;P1;durP1;ratioP1;P2;durP2;ratioP2
65073;SDS011;52218;51.224;-2.328;2022-09-27T00:01:05;3.83;;;0.60;;
65073;SDS011;52218;51.224;-2.328;2022-09-27T00:04:49;4.72;;;1.00;;
65073;SDS011;52218;51.224;-2.328;2022-09-27T00:08:31;2.22;;;0.70;;
65073;SDS011;52218;51.224;-2.328;2022-09-27T00:12:14;1.20;;;0.30;;
65073;SDS011;52218;51.224;-2.328;2022-09-27T00:15:59;3.33;;;0.70;;
65073;SDS011;52218;51.224;-2.328;2022-09-27T00:19:45;1.73;;;0.52;;
65073;SDS011;52218;51.224;-2.328;2022-09-27T00:23:27;1.98;;;0.60;;
65073;SDS011;52218;51.224;-2.328;2022-09-27T00:27:09;1.77;;;0.50;;
65073;SDS011;52218;51.224;-2.328;2022-09-27T00:30:51;1.67;;;0.50;;
65073;SDS011;52218;51.224;-2.328;2022-09-27T00:34:34;2.40;;;0.60;;
65073;SDS011;52218;51.224;-2.328;2022-09-27T00:38:16;3.13;;;0.70;;
65073;SDS011;52218;51.224;-2.328;2022-09-27T00:41:58;3.90;;;0.50;;
65073;SDS011;52218;51.224;-2.328;2022-09-27T00:45:40;2.08;;;0.60;;
65073;SDS011;52218;51.224;-2.328;2022-09-27T00:49:24;2.00;;;0.50;;
65073;SDS011;52218;51.224;-2.328;2022-09-27T00:53:13;3.28;;;1.00;;
65073;SDS011;52218;51.224;-2.328;2022-09-27T00:57:02;2.67;;;0.70;;
65073;SDS011;52218;51.224;-2.328;2022-09-27T01:00:46;4.53;;;0.65;;
65073;SDS011;52218;51.224;-2.328;2022-09-27T01:04:31;3.45;;;0.70;;
65073;SDS011;52218;51.224;-2.328;2022-09-27T01:08:16;3.58;;;0.70;;
65073;SDS011;52218;51.224;-2.328;2022-09-27T01:32:31;2.35;;;0.70;;
65073;SDS011;52218;51.224;-2.328;2022-09-27T01:40:25;3.00;;;0.70;;
65073;SDS011;52218;51.224;-2.328;2022-09-27T01:48:10;2.30;;;0.50;;
65073;SDS011;52218;51.224;-2.328;2022-09-27T01:52:04;3.00;;;0.60;;
65073;SDS011;52218;51.224;-2.328;2022-09-27T01:55:50;5.73;;;0.87;;
65073;SDS011;52218;51.224;-2.328;2022-09-27T01:59:39;3.40;;;0.80;;
65073;SDS011;52218;51.224;-2.328;2022-09-27T02:03:36;3.53;;;0.80;;
65073;SDS011;52218;51.224;-2.328;2022-09-27T02:07:44;3.90;;;0.55;;
65073;SDS011;52218;51.224;-2.328;2022-09-27T02:11:29;2.33;;;0.60;;
65073;SDS011;52218;51.224;-2.328;2022-09-27T02:15:12;2.72;;;0.70;;
65073;SDS011;52218;51.224;-2.328;2022-09-27T02:18:59;3.10;;;0.50;;
65073;SDS011;52218;51.224;-2.328;2022-09-27T02:26:55;2.28;;;0.63;;
65073;SDS011;52218;51.224;-2.328;2022-09-27T02:30:46;4.63;;;0.80;;
65073;SDS011;52218;51.224;-2.328;2022-09-27T02:34:30;2.70;;;0.70;;
65073;SDS011;52218;51.224;-2.328;2022-09-27T02:38:14;3.45;;;0.80;;
65073;SDS011;52218;51.224;-2.328;2022-09-27T02:41:57;5.32;;;0.80;;
65073;SDS011;52218;51.224;-2.328;2022-09-27T03:01:38;6.15;;;0.93;;
65073;SDS011;52218;51.224;-2.328;2022-09-27T03:05:37;3.25;;;0.77;;
65073;SDS011;52218;51.224;-2.328;2022-09-27T03:09:38;5.00;;;1.20;;
65073;SDS011;52218;51.224;-2.328;2022-09-27T03:13:28;4.13;;;0.60;;
65073;SDS011;52218;51.224;-2.328;2022-09-27T03:17:10;3.72;;;0.88;;
65073;SDS011;52218;51.224;-2.328;2022-09-27T03:20:52;4.50;;;0.90;;
65073;SDS011;52218;51.224;-2.328;2022-09-27T03:24:35;4.78;;;0.70;;
65073;SDS011;52218;51.224;-2.328;2022-09-27T03:28:16;6.30;;;1.25;;
65073;SDS011;52218;51.224;-2.328;2022-09-27T03:32:01;4.53;;;0.85;;
65073;SDS011;52218;51.224;-2.328;2022-09-27T03:35:44;5.00;;;1.10;;
65073;SDS011;52218;51.224;-2.328;2022-09-27T03:39:26;3.45;;;1.23;;
65073;SDS011;52218;51.224;-2.328;2022-09-27T03:43:08;4.97;;;0.90;;
65073;SDS011;52218;51.224;-2.328;2022-09-27T03:46:49;6.15;;;1.00;;
65073;SDS011;52218;51.224;-2.328;2022-09-27T03:50:31;6.70;;;1.23;;
65073;SDS011;52218;51.224;-2.328;2022-09-27T03:54:14;6.28;;;1.20;;
65073;SDS011;52218;51.224;-2.328;2022-09-27T03:57:55;3.55;;;0.80;;
65073;SDS011;52218;51.224;-2.328;2022-09-27T04:01:37;5.65;;;1.30;;
65073;SDS011;52218;51.224;-2.328;2022-09-27T04:05:19;6.55;;;1.40;;
65073;SDS011;52218;51.224;-2.328;2022-09-27T04:09:02;3.67;;;1.02;;
65073;SDS011;52218;51.224;-2.328;2022-09-27T04:12:44;6.82;;;1.40;;
65073;SDS011;52218;51.224;-2.328;2022-09-27T04:16:26;6.63;;;1.38;;
65073;SDS011;52218;51.224;-2.328;2022-09-27T04:20:11;8.05;;;1.60;;
65073;SDS011;52218;51.224;-2.328;2022-09-27T04:23:53;6.03;;;1.55;;
65073;SDS011;52218;51.224;-2.328;2022-09-27T04:27:35;9.70;;;1.50;;
65073;SDS011;52218;51.224;-2.328;2022-09-27T04:31:17;7.07;;;1.40;;
65073;SDS011;52218;51.224;-2.328;2022-09-27T04:35:00;4.85;;;1.33;;
65073;SDS011;52218;51.224;-2.328;2022-09-27T04:39:02;9.20;;;1.98;;
65073;SDS011;52218;51.224;-2.328;2022-09-27T04:42:45;6.50;;;1.42;;
65073;SDS011;52218;51.224;-2.328;2022-09-27T04:46:28;5.65;;;1.35;;
65073;SDS011;52218;51.224;-2.328;2022-09-27T04:50:14;8.85;;;1.45;;
65073;SDS011;52218;51.224;-2.328;2022-09-27T04:53:57;6.88;;;1.67;;
65073;SDS011;52218;51.224;-2.328;2022-09-27T04:57:39;7.60;;;1.60;;
65073;SDS011;52218;51.224;-2.328;2022-09-27T05:01:21;5.53;;;1.30;;
65073;SDS011;52218;51.224;-2.328;2022-09-27T05:05:03;6.20;;;1.48;;
65073;SDS011;52218;51.224;-2.328;2022-09-27T05:08:52;6.60;;;1.40;;
65073;SDS011;52218;51.224;-2.328;2022-09-27T05:12:35;8.45;;;1.65;;
65073;SDS011;52218;51.224;-2.328;2022-09-27T05:16:17;9.35;;;1.90;;
65073;SDS011;52218;51.224;-2.328;2022-09-27T05:20:01;8.50;;;1.35;;
65073;SDS011;52218;51.224;-2.328;2022-09-27T05:23:44;6.28;;;1.25;;
65073;SDS011;52218;51.224;-2.328;2022-09-27T05:27:28;7.10;;;1.58;;
65073;SDS011;52218;51.224;-2.328;2022-09-27T05:31:11;6.78;;;1.50;;
65073;SDS011;52218;51.224;-2.328;2022-09-27T05:34:54;7.18;;;1.30;;
65073;SDS011;52218;51.224;-2.328;2022-09-27T05:38:37;5.30;;;1.15;;
65073;SDS011;52218;51.224;-2.328;2022-09-27T05:42:20;7.03;;;1.75;;
65073;SDS011;52218;51.224;-2.328;2022-09-27T05:46:02;6.22;;;1.40;;
65073;SDS011;52218;51.224;-2.328;2022-09-27T05:49:45;7.70;;;1.30;;
65073;SDS011;52218;51.224;-2.328;2022-09-27T05:53:27;6.93;;;1.30;;
65073;SDS011;52218;51.224;-2.328;2022-09-27T05:57:09;8.13;;;1.48;;
65073;SDS011;52218;51.224;-2.328;2022-09-27T06:00:51;6.00;;;1.35;;
65073;SDS011;52218;51.224;-2.328;2022-09-27T06:04:34;6.57;;;1.20;;
65073;SDS011;52218;51.224;-2.328;2022-09-27T06:08:15;6.68;;;1.40;;
65073;SDS011;52218;51.224;-2.328;2022-09-27T06:11:59;8.93;;;1.73;;
65073;SDS011;52218;51.224;-2.328;2022-09-27T06:15:42;6.85;;;1.60;;
65073;SDS011;52218;51.224;-2.328;2022-09-27T06:19:26;6.78;;;1.30;;
65073;SDS011;52218;51.224;-2.328;2022-09-27T06:23:12;8.73;;;1.80;;
65073;SDS011;52218;51.224;-2.328;2022-09-27T06:26:55;6.93;;;2.20;;
65073;SDS011;52218;51.224;-2.328;2022-09-27T06:30:41;6.35;;;1.20;;
65073;SDS011;52218;51.224;-2.328;2022-09-27T06:34:25;8.00;;;1.63;;
65073;SDS011;52218;51.224;-2.328;2022-09-27T06:38:08;6.82;;;1.42;;
65073;SDS011;52218;51.224;-2.328;2022-09-27T06:41:53;8.60;;;1.75;;
65073;SDS011;52218;51.224;-2.328;2022-09-27T06:45:39;6.82;;;1.30;;
65073;SDS011;52218;51.224;-2.328;2022-09-27T06:49:22;8.00;;;1.65;;
65073;SDS011;52218;51.224;-2.328;2022-09-27T06:53:06;6.65;;;1.80;;
65073;SDS011;52218;51.224;-2.328;2022-09-27T06:56:50;12.07;;;2.63;;
65073;SDS011;52218;51.224;-2.328;2022-09-27T07:00:32;8.20;;;1.83;;
65073;SDS011;52218;51.224;-2.328;2022-09-27T07:04:14;7.30;;;1.38;;
65073;SDS011;52218;51.224;-2.328;2022-09-27T07:07:56;6.97;;;1.65;;
65073;SDS011;52218;51.224;-2.328;2022-09-27T07:11:39;4.90;;;1.33;;
65073;SDS011;52218;51.224;-2.328;2022-09-27T07:15:24;8.05;;;1.60;;
65073;SDS011;52218;51.224;-2.328;2022-09-27T07:19:05;10.35;;;1.92;;
65073;SDS011;52218;51.224;-2.328;2022-09-27T07:22:49;6.00;;;1.40;;
65073;SDS011;52218;51.224;-2.328;2022-09-27T07:26:31;6.18;;;1.60;;
65073;SDS011;52218;51.224;-2.328;2022-09-27T07:30:13;9.02;;;1.80;;
65073;SDS011;52218;51.224;-2.328;2022-09-27T07:33:56;11.68;;;1.90;;
65073;SDS011;52218;51.224;-2.328;2022-09-27T07:37:38;11.77;;;2.20;;
65073;SDS011;52218;51.224;-2.328;2022-09-27T07:41:20;6.93;;;1.88;;
65073;SDS011;52218;51.224;-2.328;2022-09-27T07:45:02;8.10;;;2.10;;
65073;SDS011;52218;51.224;-2.328;2022-09-27T07:48:50;10.02;;;2.03;;
65073;SDS011;52218;51.224;-2.328;2022-09-27T07:52:39;8.45;;;1.75;;
65073;SDS011;52218;51.224;-2.328;2022-09-27T07:56:22;9.65;;;2.15;;
65073;SDS011;52218;51.224;-2.328;2022-09-27T08:00:05;12.43;;;2.47;;
65073;SDS011;52218;51.224;-2.328;2022-09-27T08:03:49;8.90;;;2.25;;
65073;SDS011;52218;51.224;-2.328;2022-09-27T08:07:31;11.55;;;2.47;;
65073;SDS011;52218;51.224;-2.328;2022-09-27T08:11:14;13.07;;;2.97;;
65073;SDS011;52218;51.224;-2.328;2022-09-27T08:14:58;11.07;;;3.15;;
65073;SDS011;52218;51.224;-2.328;2022-09-27T08:18:41;9.20;;;2.50;;
65073;SDS011;52218;51.224;-2.328;2022-09-27T08:22:23;9.27;;;1.90;;
65073;SDS011;52218;51.224;-2.328;2022-09-27T08:26:05;8.60;;;2.10;;
65073;SDS011;52218;51.224;-2.328;2022-09-27T08:29:47;9.10;;;2.17;;
65073;SDS011;52218;51.224;-2.328;2022-09-27T08:33:30;11.88;;;2.20;;
65073;SDS011;52218;51.224;-2.328;2022-09-27T08:37:16;12.40;;;2.40;;
65073;SDS011;52218;51.224;-2.328;2022-09-27T08:48:51;10.40;;;2.28;;
65073;SDS011;52218;51.224;-2.328;2022-09-27T08:52:40;8.38;;;2.38;;
65073;SDS011;52218;51.224;-2.328;2022-09-27T08:56:26;7.88;;;2.13;;
65073;SDS011;52218;51.224;-2.328;2022-09-27T09:00:12;12.65;;;2.50;;
65073;SDS011;52218;51.224;-2.328;2022-09-27T09:03:57;8.80;;;2.22;;
65073;SDS011;52218;51.224;-2.328;2022-09-27T09:07:46;8.82;;;2.28;;
65073;SDS011;52218;51.224;-2.328;2022-09-27T09:15:51;14.63;;;2.60;;
65073;SDS011;52218;51.224;-2.328;2022-09-27T09:23:45;7.57;;;2.03;;
65073;SDS011;52218;51.224;-2.328;2022-09-27T09:31:49;8.35;;;2.35;;
65073;SDS011;52218;51.224;-2.328;2022-09-27T09:35:46;8.35;;;1.80;;
65073;SDS011;52218;51.224;-2.328;2022-09-27T09:39:38;9.90;;;2.10;;
65073;SDS011;52218;51.224;-2.328;2022-09-27T09:43:34;5.97;;;1.70;;
65073;SDS011;52218;51.224;-2.328;2022-09-27T09:51:22;10.75;;;2.20;;
65073;SDS011;52218;51.224;-2.328;2022-09-27T09:55:13;17.63;;;2.50;;
65073;SDS011;52218;51.224;-2.328;2022-09-27T09:59:02;8.85;;;2.10;;
65073;SDS011;52218;51.224;-2.328;2022-09-27T10:03:05;5.82;;;1.70;;
65073;SDS011;52218;51.224;-2.328;2022-09-27T10:06:47;6.85;;;1.73;;
65073;SDS011;52218;51.224;-2.328;2022-09-27T10:10:30;6.18;;;2.03;;
65073;SDS011;52218;51.224;-2.328;2022-09-27T10:14:14;7.88;;;1.52;;
65073;SDS011;52218;51.224;-2.328;2022-09-27T10:17:58;6.07;;;1.67;;
65073;SDS011;52218;51.224;-2.328;2022-09-27T10:21:41;6.40;;;1.35;;
65073;SDS011;52218;51.224;-2.328;2022-09-27T10:25:27;6.07;;;1.55;;
65073;SDS011;52218;51.224;-2.328;2022-09-27T10:29:31;7.05;;;1.80;;
65073;SDS011;52218;51.224;-2.328;2022-09-27T10:33:17;6.05;;;1.65;;
65073;SDS011;52218;51.224;-2.328;2022-09-27T10:37:01;6.78;;;1.70;;
65073;SDS011;52218;51.224;-2.328;2022-09-27T10:40:44;5.40;;;1.80;;
65073;SDS011;52218;51.224;-2.328;2022-09-27T10:44:30;6.93;;;1.40;;
65073;SDS011;52218;51.224;-2.328;2022-09-27T10:48:17;5.85;;;1.63;;
65073;SDS011;52218;51.224;-2.328;2022-09-27T10:52:19;8.02;;;1.75;;
65073;SDS011;52218;51.224;-2.328;2022-09-27T10:56:04;6.32;;;1.60;;
65073;SDS011;52218;51.224;-2.328;2022-09-27T10:59:50;8.32;;;1.70;;
65073;SDS011;52218;51.224;-2.328;2022-09-27T11:03:35;9.27;;;1.95;;
65073;SDS011;52218;51.224;-2.328;2022-09-27T11:07:19;7.15;;;1.83;;
65073;SDS011;52218;51.224;-2.328;2022-09-27T11:14:58;6.88;;;1.70;;
65073;SDS011;52218;51.224;-2.328;2022-09-27T11:40:09;8.40;;;2.45;;
65073;SDS011;52218;51.224;-2.328;2022-09-27T12:15:04;7.40;;;2.05;;
65073;SDS011;52218;51.224;-2.328;2022-09-27T12:18:53;8.80;;;1.98;;
65073;SDS011;52218;51.224;-2.328;2022-09-27T12:22:42;6.53;;;1.63;;
65073;SDS011;52218;51.224;-2.328;2022-09-27T12:26:41;8.73;;;2.45;;
65073;SDS011;52218;51.224;-2.328;2022-09-27T12:30:24;9.52;;;2.00;;
65073;SDS011;52218;51.224;-2.328;2022-09-27T12:38:33;5.78;;;1.88;;
65073;SDS011;52218;51.224;-2.328;2022-09-27T12:42:59;6.40;;;1.65;;
65073;SDS011;52218;51.224;-2.328;2022-09-27T12:46:55;9.90;;;1.80;;
65073;SDS011;52218;51.224;-2.328;2022-09-27T12:50:43;5.95;;;1.60;;
65073;SDS011;52218;51.224;-2.328;2022-09-27T13:15:42;6.43;;;1.90;;
65073;SDS011;52218;51.224;-2.328;2022-09-27T13:31:07;5.80;;;1.50;;
65073;SDS011;52218;51.224;-2.328;2022-09-27T13:34:57;6.18;;;1.60;;
65073;SDS011;52218;51.224;-2.328;2022-09-27T13:39:03;5.93;;;1.70;;
65073;SDS011;52218;51.224;-2.328;2022-09-27T13:46:54;7.25;;;1.70;;
65073;SDS011;52218;51.224;-2.328;2022-09-27T13:50:46;8.02;;;1.50;;
65073;SDS011;52218;51.224;-2.328;2022-09-27T13:54:48;6.63;;;1.52;;
65073;SDS011;52218;51.224;-2.328;2022-09-27T14:06:40;8.07;;;1.73;;
65073;SDS011;52218;51.224;-2.328;2022-09-27T14:10:26;6.43;;;1.50;;
65073;SDS011;52218;51.224;-2.328;2022-09-27T14:14:16;7.85;;;1.92;;
65073;SDS011;52218;51.224;-2.328;2022-09-27T14:18:13;5.13;;;1.67;;
65073;SDS011;52218;51.224;-2.328;2022-09-27T14:26:22;6.30;;;1.98;;
65073;SDS011;52218;51.224;-2.328;2022-09-27T14:30:12;8.77;;;1.85;;
65073;SDS011;52218;51.224;-2.328;2022-09-27T14:34:06;7.43;;;1.75;;
65073;SDS011;52218;51.224;-2.328;2022-09-27T14:37:51;8.13;;;2.03;;
65073;SDS011;52218;51.224;-2.328;2022-09-27T14:41:35;8.15;;;1.95;;
65073;SDS011;52218;51.224;-2.328;2022-09-27T14:49:20;9.90;;;2.08;;
65073;SDS011;52218;51.224;-2.328;2022-09-27T14:53:18;9.68;;;2.15;;
65073;SDS011;52218;51.224;-2.328;2022-09-27T14:57:03;9.63;;;2.00;;
65073;SDS011;52218;51.224;-2.328;2022-09-27T15:00:47;9.15;;;2.10;;
65073;SDS011;52218;51.224;-2.328;2022-09-27T15:04:30;11.23;;;2.40;;
65073;SDS011;52218;51.224;-2.328;2022-09-27T15:08:12;9.38;;;2.25;;
65073;SDS011;52218;51.224;-2.328;2022-09-27T15:11:56;9.23;;;2.35;;
65073;SDS011;52218;51.224;-2.328;2022-09-27T15:15:45;8.65;;;1.80;;
65073;SDS011;52218;51.224;-2.328;2022-09-27T15:19:29;8.65;;;2.10;;
65073;SDS011;52218;51.224;-2.328;2022-09-27T15:23:23;10.65;;;2.15;;
65073;SDS011;52218;51.224;-2.328;2022-09-27T15:27:17;7.38;;;2.00;;
65073;SDS011;52218;51.224;-2.328;2022-09-27T15:31:02;8.38;;;1.83;;
65073;SDS011;52218;51.224;-2.328;2022-09-27T15:34:46;7.13;;;1.70;;
65073;SDS011;52218;51.224;-2.328;2022-09-27T15:42:13;7.80;;;1.50;;
65073;SDS011;52218;51.224;-2.328;2022-09-27T15:46:00;8.20;;;1.60;;
65073;SDS011;52218;51.224;-2.328;2022-09-27T15:49:45;6.97;;;1.55;;
65073;SDS011;52218;51.224;-2.328;2022-09-27T15:57:15;6.78;;;1.60;;
65073;SDS011;52218;51.224;-2.328;2022-09-27T16:00:58;4.60;;;1.45;;
65073;SDS011;52218;51.224;-2.328;2022-09-27T16:04:45;7.20;;;1.40;;
65073;SDS011;52218;51.224;-2.328;2022-09-27T16:08:27;6.40;;;1.38;;
65073;SDS011;52218;51.224;-2.328;2022-09-27T16:12:09;4.57;;;1.17;;
65073;SDS011;52218;51.224;-2.328;2022-09-27T16:15:53;6.65;;;1.63;;
65073;SDS011;52218;51.224;-2.328;2022-09-27T16:19:35;5.65;;;1.27;;
65073;SDS011;52218;51.224;-2.328;2022-09-27T16:23:17;6.47;;;1.60;;
65073;SDS011;52218;51.224;-2.328;2022-09-27T16:26:59;6.32;;;1.52;;
65073;SDS011;52218;51.224;-2.328;2022-09-27T16:30:41;5.60;;;1.20;;
65073;SDS011;52218;51.224;-2.328;2022-09-27T16:34:23;5.03;;;1.35;;
65073;SDS011;52218;51.224;-2.328;2022-09-27T16:38:05;8.15;;;1.45;;
65073;SDS011;52218;51.224;-2.328;2022-09-27T16:41:47;6.38;;;1.55;;
65073;SDS011;52218;51.224;-2.328;2022-09-27T16:45:30;6.38;;;1.10;;
65073;SDS011;52218;51.224;-2.328;2022-09-27T16:49:13;9.25;;;1.88;;
65073;SDS011;52218;51.224;-2.328;2022-09-27T16:53:13;5.10;;;1.27;;
65073;SDS011;52218;51.224;-2.328;2022-09-27T16:56:56;4.82;;;1.30;;
65073;SDS011;52218;51.224;-2.328;2022-09-27T17:00:39;5.57;;;1.05;;
65073;SDS011;52218;51.224;-2.328;2022-09-27T17:04:22;5.57;;;1.17;;
65073;SDS011;52218;51.224;-2.328;2022-09-27T17:08:05;4.93;;;0.90;;
65073;SDS011;52218;51.224;-2.328;2022-09-27T17:11:47;3.90;;;1.17;;
65073;SDS011;52218;51.224;-2.328;2022-09-27T17:15:29;4.13;;;0.90;;
65073;SDS011;52218;51.224;-2.328;2022-09-27T17:19:14;3.97;;;1.10;;
65073;SDS011;52218;51.224;-2.328;2022-09-27T17:26:40;5.70;;;1.42;;
65073;SDS011;52218;51.224;-2.328;2022-09-27T17:30:23;2.80;;;1.02;;
65073;SDS011;52218;51.224;-2.328;2022-09-27T17:34:05;4.82;;;1.60;;
65073;SDS011;52218;51.224;-2.328;2022-09-27T17:37:52;5.18;;;1.10;;
65073;SDS011;52218;51.224;-2.328;2022-09-27T17:41:34;6.15;;;1.20;;
65073;SDS011;52218;51.224;-2.328;2022-09-27T17:45:20;5.47;;;0.83;;
65073;SDS011;52218;51.224;-2.328;2022-09-27T17:49:02;6.20;;;1.30;;
65073;SDS011;52218;51.224;-2.328;2022-09-27T17:53:03;5.13;;;1.00;;
65073;SDS011;52218;51.224;-2.328;2022-09-27T17:56:45;6.00;;;1.10;;
65073;SDS011;52218;51.224;-2.328;2022-09-27T18:00:27;4.18;;;1.08;;
65073;SDS011;52218;51.224;-2.328;2022-09-27T18:04:11;4.38;;;1.20;;
65073;SDS011;52218;51.224;-2.328;2022-09-27T18:07:55;4.15;;;1.30;;
65073;SDS011;52218;51.224;-2.328;2022-09-27T18:11:39;2.80;;;0.90;;
65073;SDS011;52218;51.224;-2.328;2022-09-27T18:15:21;3.03;;;1.00;;
65073;SDS011;52218;51.224;-2.328;2022-09-27T18:19:03;4.28;;;1.00;;
65073;SDS011;52218;51.224;-2.328;2022-09-27T18:22:47;4.50;;;1.27;;
65073;SDS011;52218;51.224;-2.328;2022-09-27T18:26:29;4.32;;;1.02;;
65073;SDS011;52218;51.224;-2.328;2022-09-27T18:30:12;4.97;;;0.98;;
65073;SDS011;52218;51.224;-2.328;2022-09-27T18:33:55;3.08;;;0.90;;
65073;SDS011;52218;51.224;-2.328;2022-09-27T18:37:38;4.90;;;0.90;;
65073;SDS011;52218;51.224;-2.328;2022-09-27T18:41:23;4.20;;;1.30;;
65073;SDS011;52218;51.224;-2.328;2022-09-27T18:45:07;2.80;;;1.10;;
65073;SDS011;52218;51.224;-2.328;2022-09-27T18:48:49;3.95;;;1.33;;
65073;SDS011;52218;51.224;-2.328;2022-09-27T18:52:31;3.28;;;1.00;;
65073;SDS011;52218;51.224;-2.328;2022-09-27T18:56:15;3.72;;;0.98;;
65073;SDS011;52218;51.224;-2.328;2022-09-27T18:59:57;2.97;;;0.70;;
65073;SDS011;52218;51.224;-2.328;2022-09-27T19:03:42;5.25;;;1.20;;
65073;SDS011;52218;51.224;-2.328;2022-09-27T19:07:24;2.35;;;0.75;;
65073;SDS011;52218;51.224;-2.328;2022-09-27T19:11:08;1.92;;;0.70;;
65073;SDS011;52218;51.224;-2.328;2022-09-27T19:14:51;3.88;;;0.85;;
65073;SDS011;52218;51.224;-2.328;2022-09-27T19:18:35;3.97;;;1.10;;
65073;SDS011;52218;51.224;-2.328;2022-09-27T19:22:18;6.32;;;0.90;;
65073;SDS011;52218;51.224;-2.328;2022-09-27T19:26:01;4.00;;;0.90;;
65073;SDS011;52218;51.224;-2.328;2022-09-27T19:29:45;5.05;;;1.08;;
65073;SDS011;52218;51.224;-2.328;2022-09-27T19:33:27;3.28;;;0.90;;
65073;SDS011;52218;51.224;-2.328;2022-09-27T19:37:09;4.78;;;0.82;;
65073;SDS011;52218;51.224;-2.328;2022-09-27T19:40:54;4.40;;;1.10;;
65073;SDS011;52218;51.224;-2.328;2022-09-27T19:44:36;3.42;;;1.08;;
65073;SDS011;52218;51.224;-2.328;2022-09-27T19:48:18;4.88;;;1.40;;
65073;SDS011;52218;51.224;-2.328;2022-09-27T19:52:00;3.75;;;1.00;;
65073;SDS011;52218;51.224;-2.328;2022-09-27T19:55:44;4.07;;;0.93;;
65073;SDS011;52218;51.224;-2.328;2022-09-27T19:59:26;3.15;;;0.90;;
65073;SDS011;52218;51.224;-2.328;2022-09-27T20:03:08;4.70;;;0.98;;
65073;SDS011;52218;51.224;-2.328;2022-09-27T20:06:50;4.90;;;0.85;;
65073;SDS011;52218;51.224;-2.328;2022-09-27T20:10:32;4.20;;;1.00;;
65073;SDS011;52218;51.224;-2.328;2022-09-27T20:14:14;5.75;;;1.15;;
65073;SDS011;52218;51.224;-2.328;2022-09-27T20:17:56;4.03;;;0.80;;
65073;SDS011;52218;51.224;-2.328;2022-09-27T20:21:38;3.30;;;0.90;;
65073;SDS011;52218;51.224;-2.328;2022-09-27T20:25:20;4.60;;;0.80;;
65073;SDS011;52218;51.224;-2.328;2022-09-27T20:29:03;4.53;;;0.77;;
65073;SDS011;52218;51.224;-2.328;2022-09-27T20:32:46;4.15;;;0.90;;
65073;SDS011;52218;51.224;-2.328;2022-09-27T20:36:49;3.42;;;1.13;;
65073;SDS011;52218;51.224;-2.328;2022-09-27T20:40:31;3.38;;;0.80;;
65073;SDS011;52218;51.224;-2.328;2022-09-27T20:44:14;3.72;;;0.80;;
65073;SDS011;52218;51.224;-2.328;2022-09-27T20:47:57;2.72;;;0.65;;
65073;SDS011;52218;51.224;-2.328;2022-09-27T20:51:39;4.60;;;0.93;;
65073;SDS011;52218;51.224;-2.328;2022-09-27T20:55:23;5.93;;;1.10;;
65073;SDS011;52218;51.224;-2.328;2022-09-27T20:59:06;3.78;;;0.70;;
65073;SDS011;52218;51.224;-2.328;2022-09-27T21:02:55;5.30;;;1.05;;
65073;SDS011;52218;51.224;-2.328;2022-09-27T21:06:37;4.95;;;0.80;;
65073;SDS011;52218;51.224;-2.328;2022-09-27T21:10:19;7.85;;;1.00;;
65073;SDS011;52218;51.224;-2.328;2022-09-27T21:14:01;4.35;;;0.70;;
65073;SDS011;52218;51.224;-2.328;2022-09-27T21:17:43;4.13;;;0.98;;
65073;SDS011;52218;51.224;-2.328;2022-09-27T21:21:25;4.80;;;0.90;;
65073;SDS011;52218;51.224;-2.328;2022-09-27T21:25:07;5.18;;;1.23;;
65073;SDS011;52218;51.224;-2.328;2022-09-27T21:28:50;4.20;;;0.90;;
65073;SDS011;52218;51.224;-2.328;2022-09-27T21:36:18;2.47;;;0.60;;
65073;SDS011;52218;51.224;-2.328;2022-09-27T21:40:05;6.55;;;0.98;;
65073;SDS011;52218;51.224;-2.328;2022-09-27T21:43:47;5.03;;;0.95;;
65073;SDS011;52218;51.224;-2.328;2022-09-27T21:47:29;5.40;;;1.20;;
65073;SDS011;52218;51.224;-2.328;2022-09-27T21:51:14;4.72;;;0.88;;
65073;SDS011;52218;51.224;-2.328;2022-09-27T21:55:00;3.72;;;0.90;;
65073;SDS011;52218;51.224;-2.328;2022-09-27T21:58:46;6.18;;;1.35;;
65073;SDS011;52218;51.224;-2.328;2022-09-27T22:02:28;3.90;;;0.88;;
65073;SDS011;52218;51.224;-2.328;2022-09-27T22:06:12;5.47;;;1.10;;
65073;SDS011;52218;51.224;-2.328;2022-09-27T22:09:55;4.95;;;1.00;;
65073;SDS011;52218;51.224;-2.328;2022-09-27T22:13:37;4.95;;;0.95;;
65073;SDS011;52218;51.224;-2.328;2022-09-27T22:17:19;3.58;;;0.90;;
65073;SDS011;52218;51.224;-2.328;2022-09-27T22:21:05;2.97;;;0.82;;
65073;SDS011;52218;51.224;-2.328;2022-09-27T22:24:49;6.18;;;0.98;;
65073;SDS011;52218;51.224;-2.328;2022-09-27T22:28:30;4.32;;;1.00;;
65073;SDS011;52218;51.224;-2.328;2022-09-27T22:32:12;5.25;;;1.00;;
65073;SDS011;52218;51.224;-2.328;2022-09-27T22:35:54;6.78;;;1.00;;
65073;SDS011;52218;51.224;-2.328;2022-09-27T22:39:36;3.72;;;1.10;;
65073;SDS011;52218;51.224;-2.328;2022-09-27T22:43:18;6.28;;;1.30;;
65073;SDS011;52218;51.224;-2.328;2022-09-27T22:47:00;7.03;;;1.05;;
65073;SDS011;52218;51.224;-2.328;2022-09-27T22:50:42;5.43;;;1.08;;
65073;SDS011;52218;51.224;-2.328;2022-09-27T22:54:24;4.97;;;1.10;;
65073;SDS011;52218;51.224;-2.328;2022-09-27T22:58:06;4.72;;;1.00;;
65073;SDS011;52218;51.224;-2.328;2022-09-27T23:01:48;5.57;;;1.05;;
65073;SDS011;52218;51.224;-2.328;2022-09-27T23:05:30;4.57;;;1.05;;
65073;SDS011;52218;51.224;-2.328;2022-09-27T23:09:11;5.10;;;1.20;;
65073;SDS011;52218;51.224;-2.328;2022-09-27T23:12:54;5.78;;;1.10;;
65073;SDS011;52218;51.224;-2.328;2022-09-27T23:16:36;3.60;;;0.82;;
65073;SDS011;52218;51.224;-2.328;2022-09-27T23:20:18;6.45;;;1.45;;
65073;SDS011;52218;51.224;-2.328;2022-09-27T23:24:00;4.57;;;1.00;;
65073;SDS011;52218;51.224;-2.328;2022-09-27T23:27:42;3.65;;;0.75;;
65073;SDS011;52218;51.224;-2.328;2022-09-27T23:31:29;5.93;;;0.90;;
65073;SDS011;52218;51.224;-2.328;2022-09-27T23:35:12;5.93;;;1.00;;
65073;SDS011;52218;51.224;-2.328;2022-09-27T23:38:56;2.90;;;0.80;;
65073;SDS011;52218;51.224;-2.328;2022-09-27T23:42:39;4.57;;;1.02;;
65073;SDS011;52218;51.224;-2.328;2022-09-27T23:46:21;5.10;;;1.08;;
65073;SDS011;52218;51.224;-2.328;2022-09-27T23:50:05;4.20;;;1.00;;
65073;SDS011;52218;51.224;-2.328;2022-09-27T23:53:47;5.07;;;1.00;;
65073;SDS011;52218;51.224;-2.328;2022-09-27T23:57:29;7.47;;;1.00;;
